Ana Sayfa
METAR-TAF:

METAR-TAF

Havaalanları :

Blackstone, Virginia, Amerika Birleşik Devletleri

Enlem: 37-04-26N, Boylam: 077-57-09W, yükseklik: 134 m

Güncel hava durumu gözlemi

Rapor saat 04:35 UTC de 23 dakika önce yapıldı.
Rüzgar kuzey/kuzeydoğudan 6 kt
Sıcaklık -6°C
Nem 86%
Basınç 1030 hPa
Görüş mesafesi: 4.0 km
1200 ft yükseklikte parçalı bulutlu
2200 ft yükseklikte parçalı çok bulutlu
2800 ft yükseklikte çok bulutlu
Pus

METAR: KBKT 220435Z AUTO 02006KT 2 1/2SM BR SCT012 BKN022 OVC028 M06/M08 A3041 RMK AO1 T10651085

Saat: 23:58 (04:58 UTC)


TAF: eksik

4.000'den fazla havaalanı için hava durumu gözlemleri ve tahminleri (METAR ve TAF raporları).

Kullanılabilir istasyonlar harita üzerinde sarı ve kırmızı noktalarla gösterilir.

İstasyonun adını görmek için fareyi noktanın üzerinde gezdirin.

Sonrasında hava gözlem ve tahminlerini görmek için tıklayın.

Haritayı değiştirmek için: yaklaştırmak için siyah artı işaretli yeşil düğmeye ve uzaklaştırmak için de eksi işaretli düğmeye hızla tıklayın; bitişik haritalar için yeşil okları kullanın.


METAR-TAF: